createdAt,value
2022-09-14T00:00:33.295Z,79.13
2022-09-14T00:05:55.645Z,78.67
2022-09-14T00:11:14.648Z,78.61
2022-09-14T00:16:39.591Z,78.52
2022-09-14T00:21:45.730Z,78.51
2022-09-14T00:26:48.219Z,78.64
2022-09-14T00:31:51.181Z,78.36
2022-09-14T00:36:54.461Z,78.38
2022-09-14T00:41:57.656Z,78.68
2022-09-14T00:47:02.963Z,78.73
2022-09-14T00:52:10.946Z,78.94
2022-09-14T00:57:16.082Z,79.11
2022-09-14T01:02:21.817Z,79.73
2022-09-14T01:07:43.293Z,79.64
2022-09-14T01:13:27.980Z,79.75
2022-09-14T01:18:38.399Z,80.14
2022-09-14T01:23:55.236Z,80.43
2022-09-14T01:29:17.176Z,80.49
2022-09-14T01:34:29.347Z,80.57
2022-09-14T01:39:35.887Z,80.93
2022-09-14T01:44:46.064Z,80.72
2022-09-14T01:49:54.761Z,80.53
2022-09-14T01:55:18.672Z,80.88
2022-09-14T02:00:25.802Z,81.32
2022-09-14T02:05:39.894Z,81.38
2022-09-14T02:10:43.422Z,81.39
2022-09-14T02:15:46.737Z,81.34
2022-09-14T02:21:03.164Z,81.32
2022-09-14T02:26:06.115Z,81.22
2022-09-14T02:31:24.203Z,81.23
2022-09-14T02:36:38.468Z,81.30
2022-09-14T02:41:57.508Z,81.62
2022-09-14T02:47:12.579Z,81.72
2022-09-14T02:52:36.766Z,81.93
2022-09-14T02:58:04.663Z,82.10
2022-09-14T03:03:09.169Z,82.22
2022-09-14T03:08:12.370Z,82.04
2022-09-14T03:13:15.808Z,82.67
2022-09-14T03:18:18.957Z,82.55
2022-09-14T03:23:21.521Z,82.68
2022-09-14T03:28:23.700Z,82.91
2022-09-14T03:33:25.727Z,82.82
2022-09-14T03:38:30.161Z,82.88
2022-09-14T03:43:33.416Z,82.98
2022-09-14T03:48:36.102Z,82.97
2022-09-14T03:53:40.282Z,82.53
2022-09-14T03:58:44.711Z,82.75
2022-09-14T04:03:48.713Z,82.65
2022-09-14T04:08:50.795Z,83.01
2022-09-14T04:13:52.872Z,82.98
2022-09-14T04:18:54.879Z,82.55
2022-09-14T04:24:16.195Z,82.71
2022-09-14T04:29:19.292Z,83.14
2022-09-14T04:34:21.103Z,83.35
2022-09-14T04:39:24.319Z,83.54
2022-09-14T04:44:27.409Z,83.28
2022-09-14T04:49:33.003Z,83.35
2022-09-14T04:54:36.012Z,83.62
2022-09-14T04:59:38.055Z,83.81
2022-09-14T05:04:39.819Z,83.90
2022-09-14T05:09:43.744Z,83.70
2022-09-14T05:14:46.921Z,83.81
2022-09-14T05:19:49.612Z,83.74
2022-09-14T05:24:51.548Z,83.71
2022-09-14T05:29:53.867Z,83.75
2022-09-14T05:34:56.027Z,83.67
2022-09-14T05:39:59.187Z,83.61
2022-09-14T05:45:01.540Z,83.50
2022-09-14T05:50:04.650Z,83.41
2022-09-14T05:55:08.256Z,83.40
2022-09-14T06:00:12.226Z,82.94
2022-09-14T06:05:15.160Z,82.38
2022-09-14T06:10:18.832Z,82.19
2022-09-14T06:15:24.843Z,82.30
2022-09-14T06:20:27.979Z,82.01
2022-09-14T06:25:31.222Z,81.61
2022-09-14T06:30:33.982Z,81.54
2022-09-14T06:35:37.207Z,81.41
2022-09-14T06:40:39.284Z,80.89
2022-09-14T06:45:41.965Z,80.22
2022-09-14T06:50:44.857Z,80.43
2022-09-14T06:55:47.671Z,80.14
2022-09-14T07:00:50.686Z,79.26
2022-09-14T07:06:01.443Z,78.67
2022-09-14T07:11:06.014Z,78.28
2022-09-14T07:16:08.787Z,77.26
2022-09-14T07:21:14.833Z,76.80
2022-09-14T07:26:20.691Z,76.00
2022-09-14T07:31:27.485Z,74.91
2022-09-14T07:36:34.774Z,74.06
2022-09-14T07:41:39.216Z,73.97
2022-09-14T07:46:43.126Z,72.11
2022-09-14T07:51:46.031Z,70.68
2022-09-14T07:56:50.408Z,69.43
2022-09-14T08:01:52.293Z,68.47
2022-09-14T08:06:54.664Z,67.40
2022-09-14T08:11:58.071Z,66.57
2022-09-14T08:17:00.635Z,65.90
2022-09-14T08:22:04.743Z,64.74
2022-09-14T08:27:07.074Z,64.73
2022-09-14T08:32:12.564Z,63.81
2022-09-14T08:37:15.078Z,64.05
2022-09-14T08:42:20.433Z,64.14
2022-09-14T08:47:38.460Z,63.60
2022-09-14T08:52:56.246Z,64.18
2022-09-14T08:58:31.245Z,63.55
2022-09-14T09:03:39.233Z,63.39
2022-09-14T09:08:44.665Z,62.71
2022-09-14T09:13:53.422Z,62.46
2022-09-14T09:19:02.231Z,62.67
2022-09-14T09:24:17.903Z,62.61
2022-09-14T09:29:20.685Z,62.27
2022-09-14T09:34:28.751Z,61.93
2022-09-14T09:39:32.431Z,61.73
2022-09-14T09:45:01.761Z,60.75
2022-09-14T09:50:26.696Z,60.32
2022-09-14T09:55:38.006Z,60.19
2022-09-14T10:00:40.178Z,59.52
2022-09-14T10:05:43.009Z,58.92
2022-09-14T10:10:46.084Z,58.07
2022-09-14T10:15:49.846Z,57.48
2022-09-14T10:20:53.278Z,57.81
2022-09-14T10:26:13.590Z,58.36
2022-09-14T10:31:18.562Z,58.17
2022-09-14T10:36:31.988Z,58.30
2022-09-14T10:41:57.344Z,57.66
2022-09-14T10:47:40.094Z,56.71
2022-09-14T10:53:03.102Z,55.84
2022-09-14T10:58:28.728Z,54.97
2022-09-14T11:03:43.972Z,54.84
2022-09-14T11:08:56.152Z,54.70
2022-09-14T11:14:24.978Z,54.42
2022-09-14T11:19:54.752Z,53.58
2022-09-14T11:25:13.326Z,53.66
2022-09-14T11:30:22.758Z,53.99
2022-09-14T11:35:46.394Z,54.07
2022-09-14T11:40:57.435Z,53.57
2022-09-14T11:46:09.764Z,53.50
2022-09-14T11:51:36.738Z,52.99
2022-09-14T11:56:39.990Z,53.00
2022-09-14T12:01:43.369Z,53.28
2022-09-14T12:06:54.407Z,53.58
2022-09-14T12:12:03.582Z,53.17
2022-09-14T12:22:49.398Z,52.78
2022-09-14T12:27:53.815Z,52.96
2022-09-14T12:32:56.081Z,52.59
2022-09-14T12:38:18.800Z,52.52
2022-09-14T12:43:32.539Z,52.55
2022-09-14T12:48:48.374Z,52.56
2022-09-14T12:54:04.153Z,52.90
2022-09-14T12:59:30.439Z,53.73
2022-09-14T13:04:35.025Z,53.82
2022-09-14T13:09:37.351Z,53.81
2022-09-14T13:14:56.434Z,53.62
2022-09-14T13:20:05.921Z,53.69
2022-09-14T13:25:34.217Z,54.10
2022-09-14T13:30:37.792Z,53.91
2022-09-14T13:35:49.402Z,54.43
2022-09-14T13:40:56.720Z,54.72
2022-09-14T13:46:00.333Z,54.39
2022-09-14T13:51:06.506Z,54.72
2022-09-14T13:56:23.477Z,54.50
2022-09-14T14:01:30.147Z,54.50
2022-09-14T14:06:37.807Z,54.70
2022-09-14T14:11:55.341Z,55.29
2022-09-14T14:17:24.469Z,55.86
2022-09-14T14:22:34.244Z,56.17
2022-09-14T14:27:43.443Z,56.35
2022-09-14T14:32:56.905Z,56.75
2022-09-14T14:37:59.525Z,57.20
2022-09-14T14:43:04.084Z,57.07
2022-09-14T14:48:10.325Z,57.12
2022-09-14T14:53:13.646Z,57.41
2022-09-14T14:58:18.358Z,57.63
2022-09-14T15:03:21.232Z,57.73
2022-09-14T15:08:24.618Z,57.97
2022-09-14T15:13:28.021Z,58.22
2022-09-14T15:18:30.264Z,57.95
2022-09-14T15:23:32.822Z,57.98
2022-09-14T15:28:38.491Z,57.99
2022-09-14T15:33:41.874Z,58.31
2022-09-14T15:38:44.499Z,58.28
2022-09-14T15:43:47.725Z,58.63
2022-09-14T15:48:49.864Z,58.94
2022-09-14T15:53:52.942Z,58.97
2022-09-14T15:59:01.041Z,59.14
2022-09-14T16:04:09.623Z,59.58
2022-09-14T16:09:17.411Z,59.73
2022-09-14T16:14:19.934Z,60.17
2022-09-14T16:19:22.967Z,61.07
2022-09-14T16:24:26.833Z,61.82
2022-09-14T16:29:29.233Z,62.55
2022-09-14T16:34:32.009Z,62.85
2022-09-14T16:39:35.666Z,63.60
2022-09-14T16:44:37.887Z,64.08
2022-09-14T16:49:39.851Z,64.67
2022-09-14T16:54:43.773Z,65.21
2022-09-14T16:59:46.753Z,65.58
2022-09-14T17:04:48.839Z,65.61
2022-09-14T17:09:53.876Z,66.24
2022-09-14T17:14:55.702Z,66.85
2022-09-14T17:19:58.245Z,67.07
2022-09-14T17:25:00.790Z,67.50
2022-09-14T17:30:03.303Z,67.88
2022-09-14T17:35:08.182Z,68.39
2022-09-14T17:40:10.824Z,68.46
2022-09-14T17:45:13.190Z,69.06
2022-09-14T17:50:16.631Z,69.18
2022-09-14T17:55:20.071Z,69.41
2022-09-14T18:00:22.927Z,69.83
2022-09-14T18:05:26.119Z,69.99
2022-09-14T18:10:29.642Z,70.13
2022-09-14T18:15:35.935Z,70.46
2022-09-14T18:20:41.997Z,70.54
2022-09-14T18:25:45.864Z,70.87
2022-09-14T18:30:49.535Z,71.18
2022-09-14T18:35:54.550Z,71.37
2022-09-14T18:41:10.361Z,71.53
2022-09-14T18:46:18.800Z,71.65
2022-09-14T18:51:27.749Z,72.07
2022-09-14T18:56:36.075Z,71.97
2022-09-14T19:01:42.450Z,72.38
2022-09-14T19:06:46.408Z,72.81
2022-09-14T19:11:53.884Z,73.02
2022-09-14T19:16:58.924Z,73.26
2022-09-14T19:22:03.107Z,73.63
2022-09-14T19:27:08.172Z,73.94
2022-09-14T19:32:11.748Z,73.90
2022-09-14T19:37:14.502Z,73.94
2022-09-14T19:42:18.791Z,73.92
2022-09-14T19:47:25.018Z,74.15
2022-09-14T19:52:28.844Z,74.18
2022-09-14T19:57:32.400Z,74.40
2022-09-14T20:02:35.868Z,74.48
2022-09-14T20:07:39.165Z,74.73
2022-09-14T20:12:41.940Z,75.15
2022-09-14T20:17:47.342Z,75.38
2022-09-14T20:22:51.191Z,75.37
2022-09-14T20:27:53.780Z,75.69
2022-09-14T20:32:56.834Z,75.93
2022-09-14T20:37:59.940Z,76.11
2022-09-14T20:43:02.664Z,76.30
2022-09-14T20:48:05.863Z,76.49
2022-09-14T20:53:08.129Z,76.55
2022-09-14T20:58:11.576Z,76.30
2022-09-14T21:03:14.967Z,76.52
2022-09-14T21:08:21.953Z,76.67
2022-09-14T21:13:24.844Z,76.74
2022-09-14T21:18:27.146Z,76.80
2022-09-14T21:23:30.115Z,76.93
2022-09-14T21:28:35.005Z,77.17
2022-09-14T21:33:38.738Z,77.11
2022-09-14T21:38:42.209Z,76.74
2022-09-14T21:43:45.699Z,76.95
2022-09-14T21:48:49.216Z,77.02
2022-09-14T21:54:00.043Z,77.12
2022-09-14T21:59:08.698Z,77.08
2022-09-14T22:04:23.068Z,76.95
2022-09-14T22:09:28.933Z,77.22
2022-09-14T22:14:34.958Z,77.45
2022-09-14T22:19:37.735Z,77.59
2022-09-14T22:24:42.022Z,77.69
2022-09-14T22:29:44.612Z,77.90
2022-09-14T22:34:50.580Z,78.01
2022-09-14T22:39:54.177Z,78.02
2022-09-14T22:44:57.288Z,78.09
2022-09-14T22:49:59.718Z,78.29
2022-09-14T22:55:02.132Z,78.71
2022-09-14T23:00:08.669Z,79.09
2022-09-14T23:05:11.081Z,79.04
2022-09-14T23:10:14.750Z,79.05
2022-09-14T23:15:17.055Z,78.96
2022-09-14T23:20:19.442Z,78.81
2022-09-14T23:25:21.674Z,79.01
2022-09-14T23:30:23.900Z,79.06
2022-09-14T23:35:27.028Z,79.12
2022-09-14T23:40:29.686Z,79.21
2022-09-14T23:45:33.293Z,79.26
2022-09-14T23:50:36.576Z,79.20
2022-09-14T23:55:42.249Z,78.96
